createdAt,value
2019-01-16T00:04:43.370Z,100.00
2019-01-16T00:10:17.732Z,99.62
2019-01-16T00:15:42.568Z,99.58
2019-01-16T00:20:53.556Z,98.94
2019-01-16T00:26:09.363Z,99.39
2019-01-16T00:31:30.595Z,98.79
2019-01-16T00:36:55.617Z,98.98
2019-01-16T00:42:24.023Z,98.73
2019-01-16T00:47:44.851Z,98.56
2019-01-16T00:53:05.428Z,98.57
2019-01-16T00:58:45.308Z,97.70
2019-01-16T01:04:13.443Z,98.29
2019-01-16T01:09:34.255Z,97.69
2019-01-16T01:14:58.653Z,97.68
2019-01-16T01:20:21.219Z,97.52
2019-01-16T01:25:41.474Z,97.19
2019-01-16T01:31:05.948Z,96.77
2019-01-16T01:36:28.510Z,97.14
2019-01-16T01:41:50.871Z,96.68
2019-01-16T01:47:01.640Z,96.16
2019-01-16T01:52:29.660Z,96.47
2019-01-16T01:57:58.955Z,95.83
2019-01-16T02:03:23.514Z,95.96
2019-01-16T02:08:44.396Z,96.40
2019-01-16T02:13:54.663Z,96.32
2019-01-16T02:19:09.749Z,96.51
2019-01-16T02:24:44.302Z,96.54
2019-01-16T02:30:05.540Z,96.04
2019-01-16T02:35:31.690Z,96.22
2019-01-16T02:41:02.637Z,96.70
2019-01-16T02:46:23.871Z,96.60
2019-01-16T02:52:03.622Z,96.68
2019-01-16T02:57:40.540Z,96.87
2019-01-16T03:02:55.063Z,96.34
2019-01-16T03:08:23.514Z,96.51
2019-01-16T03:13:39.830Z,96.40
2019-01-16T03:19:04.599Z,96.21
2019-01-16T03:24:27.247Z,96.30
2019-01-16T03:29:49.560Z,96.73
2019-01-16T03:35:10.597Z,96.71
2019-01-16T03:40:25.177Z,95.91
2019-01-16T03:45:35.459Z,96.34
2019-01-16T03:50:47.268Z,96.36
2019-01-16T03:56:06.853Z,95.86
2019-01-16T04:01:38.133Z,96.26
2019-01-16T04:07:07.138Z,96.14
2019-01-16T04:12:25.519Z,96.91
2019-01-16T04:17:46.345Z,96.50
2019-01-16T04:23:11.371Z,96.66
2019-01-16T04:28:32.043Z,96.73
2019-01-16T04:33:52.715Z,96.86
2019-01-16T04:39:06.872Z,96.59
2019-01-16T04:44:35.059Z,96.81
2019-01-16T04:49:48.512Z,96.03
2019-01-16T04:55:16.203Z,95.74
2019-01-16T05:00:36.268Z,96.14
2019-01-16T05:05:52.529Z,96.53
2019-01-16T05:11:02.835Z,96.82
2019-01-16T05:16:24.222Z,96.74
2019-01-16T05:21:55.399Z,96.49
2019-01-16T05:27:16.015Z,96.71
2019-01-16T05:32:37.438Z,96.93
2019-01-16T05:37:56.382Z,97.31
2019-01-16T05:43:13.141Z,95.91
2019-01-16T05:48:47.501Z,96.33
2019-01-16T05:54:10.266Z,96.14
2019-01-16T05:59:35.232Z,96.37
2019-01-16T06:04:52.417Z,96.00
2019-01-16T06:10:26.358Z,96.08
2019-01-16T06:15:43.183Z,96.04
2019-01-16T06:21:04.056Z,96.21
2019-01-16T06:26:15.300Z,96.27
2019-01-16T06:31:31.513Z,96.10
2019-01-16T06:36:46.455Z,95.92
2019-01-16T06:42:01.549Z,96.15
2019-01-16T06:47:32.547Z,96.52
2019-01-16T06:52:57.669Z,96.28
2019-01-16T06:58:13.425Z,96.29
2019-01-16T07:03:45.566Z,95.85
2019-01-16T07:08:56.767Z,96.33
2019-01-16T07:14:16.780Z,96.26
2019-01-16T07:19:33.284Z,95.69
2019-01-16T07:24:55.847Z,95.72
2019-01-16T07:30:07.867Z,96.06
2019-01-16T07:35:20.288Z,94.85
2019-01-16T07:40:51.355Z,94.87
2019-01-16T07:46:14.944Z,95.05
2019-01-16T07:51:46.209Z,95.06
2019-01-16T07:57:00.697Z,94.96
2019-01-16T08:02:23.864Z,94.65
2019-01-16T08:08:01.091Z,94.12
2019-01-16T08:13:35.713Z,94.35
2019-01-16T08:18:57.055Z,94.61
2019-01-16T08:24:15.721Z,94.27
2019-01-16T08:29:46.887Z,94.20
2019-01-16T08:34:59.822Z,93.84
2019-01-16T08:40:27.843Z,94.62
2019-01-16T08:45:41.982Z,94.12
2019-01-16T08:51:15.931Z,94.04
2019-01-16T08:56:42.273Z,93.95
2019-01-16T09:02:02.779Z,94.00
2019-01-16T09:07:25.361Z,94.30
2019-01-16T09:12:46.584Z,94.83
2019-01-16T09:17:57.015Z,94.14
2019-01-16T09:23:17.776Z,94.59
2019-01-16T09:28:42.906Z,93.69
2019-01-16T09:34:10.894Z,93.06
2019-01-16T09:39:36.174Z,92.62
2019-01-16T09:44:51.000Z,93.15
2019-01-16T09:50:28.017Z,92.51
2019-01-16T09:56:04.528Z,92.01
2019-01-16T10:01:24.897Z,92.16
2019-01-16T10:06:36.519Z,91.54
2019-01-16T10:11:56.011Z,91.27
2019-01-16T10:17:33.219Z,91.08
2019-01-16T10:22:47.383Z,90.71
2019-01-16T10:28:12.087Z,90.71
2019-01-16T10:33:32.683Z,90.64
2019-01-16T10:39:07.267Z,91.12
2019-01-16T10:44:35.446Z,90.82
2019-01-16T10:49:57.715Z,90.43
2019-01-16T10:55:09.657Z,90.61
2019-01-16T11:00:28.852Z,91.31
2019-01-16T11:05:50.972Z,91.98
2019-01-16T11:11:16.198Z,92.97
2019-01-16T11:16:30.254Z,92.20
2019-01-16T11:21:51.383Z,93.21
2019-01-16T11:27:22.957Z,94.31
2019-01-16T11:32:34.877Z,95.98
2019-01-16T11:37:50.986Z,98.29
2019-01-16T11:43:09.225Z,99.07
2019-01-16T11:48:25.011Z,99.57
2019-01-16T11:53:40.264Z,99.24
2019-01-16T11:59:01.172Z,99.37
2019-01-16T12:04:22.716Z,100.00
2019-01-16T12:09:43.742Z,100.00
2019-01-16T12:15:04.462Z,100.00
2019-01-16T12:20:20.476Z,100.00
2019-01-16T12:25:41.810Z,100.00
2019-01-16T12:31:10.511Z,100.00
2019-01-16T12:36:27.864Z,100.00
2019-01-16T12:41:43.557Z,100.00
2019-01-16T12:47:03.856Z,100.00
2019-01-16T12:52:22.333Z,100.00
2019-01-16T12:57:36.311Z,100.00
2019-01-16T13:02:48.413Z,100.00
2019-01-16T13:08:28.498Z,100.00
2019-01-16T13:13:59.356Z,100.00
2019-01-16T13:19:26.578Z,100.00
2019-01-16T13:24:46.586Z,100.00
2019-01-16T13:30:06.733Z,100.00
2019-01-16T13:35:25.511Z,100.00
2019-01-16T13:40:46.747Z,100.00
2019-01-16T13:46:05.826Z,100.00
2019-01-16T13:51:24.191Z,100.00
2019-01-16T13:56:46.343Z,100.00
2019-01-16T14:02:02.760Z,100.00
2019-01-16T14:07:21.749Z,100.00
2019-01-16T14:12:39.703Z,100.00
2019-01-16T14:18:00.928Z,100.00
2019-01-16T14:23:16.117Z,100.00
2019-01-16T14:28:40.506Z,100.00
2019-01-16T14:34:02.328Z,100.00
2019-01-16T14:39:25.205Z,100.00
2019-01-16T14:44:47.809Z,100.00
2019-01-16T14:49:58.906Z,100.00
2019-01-16T14:55:13.941Z,100.00
2019-01-16T15:00:48.032Z,100.00
2019-01-16T15:05:59.020Z,100.00
2019-01-16T15:11:19.936Z,100.00
2019-01-16T15:16:45.074Z,100.00
2019-01-16T15:21:59.432Z,100.00
2019-01-16T15:27:22.000Z,100.00
2019-01-16T15:32:42.541Z,100.00
2019-01-16T15:38:04.513Z,100.00
2019-01-16T15:43:23.550Z,100.00
2019-01-16T15:48:38.345Z,100.00
2019-01-16T15:53:59.229Z,100.00
2019-01-16T15:59:27.115Z,100.00
2019-01-16T16:04:49.703Z,100.00
2019-01-16T16:10:18.521Z,100.00
2019-01-16T16:15:42.825Z,100.00
2019-01-16T16:21:03.650Z,100.00
2019-01-16T16:26:20.070Z,100.00
2019-01-16T16:31:34.292Z,100.00
2019-01-16T16:36:55.480Z,100.00
2019-01-16T16:42:18.529Z,100.00
2019-01-16T16:47:40.100Z,100.00
2019-01-16T16:53:22.231Z,100.00
2019-01-16T16:59:04.643Z,100.00
2019-01-16T17:04:38.580Z,100.00
2019-01-16T17:10:11.588Z,100.00
2019-01-16T17:15:47.783Z,100.00
2019-01-16T17:21:03.394Z,100.00
2019-01-16T17:26:34.182Z,100.00
2019-01-16T17:31:59.296Z,100.00
2019-01-16T17:37:26.063Z,100.00
2019-01-16T17:42:50.508Z,100.00
2019-01-16T17:48:08.632Z,100.00
2019-01-16T17:53:29.324Z,100.00
2019-01-16T17:58:51.053Z,100.00
2019-01-16T18:04:06.772Z,100.00
2019-01-16T18:09:28.897Z,100.00
2019-01-16T18:14:48.292Z,100.00
2019-01-16T18:20:21.288Z,100.00
2019-01-16T18:25:43.661Z,100.00
2019-01-16T18:31:14.433Z,100.00
2019-01-16T18:36:45.985Z,100.00
2019-01-16T18:42:08.655Z,100.00
2019-01-16T18:47:26.512Z,100.00
2019-01-16T18:52:55.546Z,100.00
2019-01-16T18:58:42.035Z,100.00
2019-01-16T19:04:08.124Z,100.00
2019-01-16T19:09:32.723Z,100.00
2019-01-16T19:14:43.537Z,100.00
2019-01-16T19:20:04.641Z,100.00
2019-01-16T19:25:19.605Z,100.00
2019-01-16T19:30:51.096Z,100.00
2019-01-16T19:36:06.704Z,100.00
2019-01-16T19:41:28.820Z,100.00
2019-01-16T19:47:04.204Z,100.00
2019-01-16T19:52:19.787Z,100.00
2019-01-16T19:57:53.395Z,100.00
2019-01-16T20:03:20.959Z,100.00
2019-01-16T20:08:44.173Z,100.00
2019-01-16T20:14:02.994Z,100.00
2019-01-16T20:19:27.929Z,100.00
2019-01-16T20:24:53.377Z,100.00
2019-01-16T20:30:18.148Z,100.00
2019-01-16T20:35:45.728Z,100.00
2019-01-16T20:41:05.016Z,100.00
2019-01-16T20:46:44.327Z,100.00
2019-01-16T20:52:20.261Z,100.00
2019-01-16T20:57:46.943Z,100.00
2019-01-16T21:03:08.221Z,100.00
2019-01-16T21:08:49.434Z,100.00
2019-01-16T21:14:02.986Z,100.00
2019-01-16T21:19:25.098Z,100.00
2019-01-16T21:24:51.410Z,100.00
2019-01-16T21:30:15.025Z,100.00
2019-01-16T21:35:45.705Z,100.00
2019-01-16T21:41:06.439Z,100.00
2019-01-16T21:46:28.386Z,100.00
2019-01-16T21:51:42.260Z,100.00
2019-01-16T21:57:03.255Z,100.00
2019-01-16T22:02:22.970Z,100.00
2019-01-16T22:07:41.899Z,100.00
2019-01-16T22:13:02.876Z,100.00
2019-01-16T22:18:20.894Z,100.00
2019-01-16T22:23:47.002Z,100.00
2019-01-16T22:29:06.123Z,100.00
2019-01-16T22:34:22.346Z,100.00
2019-01-16T22:39:52.476Z,100.00
2019-01-16T22:45:20.337Z,100.00
2019-01-16T22:50:38.402Z,100.00
2019-01-16T22:56:10.165Z,100.00
2019-01-16T23:01:42.542Z,100.00
2019-01-16T23:07:02.242Z,100.00
2019-01-16T23:12:23.471Z,100.00
2019-01-16T23:17:48.587Z,100.00
2019-01-16T23:22:59.085Z,100.00
2019-01-16T23:28:19.800Z,100.00
2019-01-16T23:33:51.172Z,100.00
2019-01-16T23:39:16.702Z,100.00
2019-01-16T23:44:31.164Z,100.00
2019-01-16T23:49:59.785Z,100.00
2019-01-16T23:55:22.048Z,100.00
